Time;durP1;ratioP1;P1;durP2;ratioP2;P2;SDS_P1;SDS_P2;PMS_P1;PMS_P2;Temp;Humidity;BMP_temperature;BMP_pressure;BME280_temperature;BME280_humidity;BME280_pressure;Samples;Min_cycle;Max_cycle;Signal;HPM_P1;HPM_P2
2023/04/16 00:01:39;;;;;;;3.33;2.97;;;12.40;97.20;;;;;;937580;148;27446;-78
2023/04/16 00:04:05;;;;;;;3.60;3.30;;;12.40;97.10;;;;;;933991;149;27338;-78
2023/04/16 00:06:32;;;;;;;3.50;3.27;;;12.40;97.10;;;;;;933488;149;27931;-78
2023/04/16 00:08:58;;;;;;;3.10;2.87;;;12.40;97.10;;;;;;931591;149;27350;-78
2023/04/16 00:11:25;;;;;;;3.87;3.40;;;12.40;97.20;;;;;;930157;149;27372;-78
2023/04/16 00:13:52;;;;;;;3.50;3.20;;;12.40;97.10;;;;;;934509;149;27346;-78
2023/04/16 00:16:18;;;;;;;4.90;3.57;;;12.40;97.10;;;;;;938465;150;27330;-78
2023/04/16 00:18:45;;;;;;;4.10;3.80;;;12.40;97.10;;;;;;940023;150;27352;-78
2023/04/16 00:21:11;;;;;;;3.77;3.30;;;12.40;97.00;;;;;;937437;149;27326;-78
2023/04/16 00:23:38;;;;;;;4.00;3.60;;;12.40;97.00;;;;;;933179;150;27373;-78
2023/04/16 00:26:04;;;;;;;3.67;3.37;;;12.40;97.10;;;;;;936610;149;27285;-78
2023/04/16 00:28:31;;;;;;;4.00;3.70;;;12.40;96.90;;;;;;919917;150;27328;-78
2023/04/16 00:30:58;;;;;;;3.60;3.30;;;12.40;97.00;;;;;;908018;155;27818;-78
2023/04/16 00:33:24;;;;;;;4.20;3.87;;;12.40;97.00;;;;;;936861;148;27461;-78
2023/04/16 00:35:51;;;;;;;4.20;3.90;;;12.40;97.00;;;;;;953472;146;27407;-78
2023/04/16 00:38:17;;;;;;;4.13;3.73;;;12.40;97.00;;;;;;943505;148;27353;-78
2023/04/16 00:40:44;;;;;;;4.10;3.70;;;12.40;97.00;;;;;;941916;149;27314;-78
2023/04/16 00:43:11;;;;;;;3.70;3.40;;;12.40;97.00;;;;;;941376;149;27341;-78
2023/04/16 00:45:37;;;;;;;4.03;3.47;;;12.40;97.00;;;;;;941663;149;27392;-78
2023/04/16 00:48:04;;;;;;;3.67;3.37;;;12.40;97.00;;;;;;941432;149;27399;-78
2023/04/16 00:50:30;;;;;;;4.00;3.60;;;12.40;97.00;;;;;;941389;149;27373;-78
2023/04/16 00:52:57;;;;;;;3.67;3.37;;;12.40;97.00;;;;;;941828;149;27415;-78
2023/04/16 00:55:24;;;;;;;4.17;3.60;;;12.40;97.10;;;;;;944871;148;28470;-78
2023/04/16 00:57:50;;;;;;;4.67;4.03;;;12.40;97.10;;;;;;928235;150;27476;-78
2023/04/16 01:00:17;;;;;;;4.00;3.70;;;12.40;96.90;;;;;;943494;148;27321;-78
2023/04/16 01:02:43;;;;;;;4.47;4.07;;;12.40;96.90;;;;;;940672;149;27455;-78
2023/04/16 01:05:10;;;;;;;5.27;4.40;;;12.40;96.90;;;;;;942341;149;27302;-78
2023/04/16 01:07:36;;;;;;;4.97;4.43;;;12.40;96.90;;;;;;941685;149;27459;-78
2023/04/16 01:10:03;;;;;;;4.43;3.93;;;12.40;96.90;;;;;;942070;149;27362;-78
2023/04/16 01:12:30;;;;;;;4.83;4.33;;;12.40;97.00;;;;;;939788;149;27431;-78
2023/04/16 01:14:56;;;;;;;5.07;4.57;;;12.40;97.00;;;;;;944565;148;27828;-77
2023/04/16 01:17:23;;;;;;;3.80;3.50;;;12.40;97.00;;;;;;943229;148;27489;-78
2023/04/16 01:19:49;;;;;;;4.23;3.80;;;12.40;97.00;;;;;;942072;149;27369;-78
2023/04/16 01:22:16;;;;;;;5.60;5.00;;;12.40;97.00;;;;;;943457;148;27341;-78
2023/04/16 01:24:43;;;;;;;4.50;4.10;;;12.50;97.00;;;;;;943330;148;27347;-78
2023/04/16 01:27:09;;;;;;;5.20;4.63;;;12.50;97.00;;;;;;943287;148;27474;-78
2023/04/16 01:29:36;;;;;;;5.70;4.23;;;12.50;97.00;;;;;;944121;148;27353;-77
2023/04/16 01:32:02;;;;;;;4.60;4.20;;;12.50;96.90;;;;;;944255;147;27365;-78
2023/04/16 01:34:29;;;;;;;4.87;4.47;;;12.50;97.00;;;;;;942458;148;27430;-78
2023/04/16 01:36:55;;;;;;;4.53;4.13;;;12.50;96.90;;;;;;923462;152;27836;-77
2023/04/16 01:39:22;;;;;;;5.00;4.07;;;12.50;96.90;;;;;;928281;153;27400;-78
2023/04/16 01:41:49;;;;;;;5.37;4.10;;;12.50;96.90;;;;;;928077;153;27471;-78
2023/04/16 01:44:15;;;;;;;4.80;4.30;;;12.50;96.80;;;;;;929977;152;27312;-78
2023/04/16 01:46:42;;;;;;;4.60;4.20;;;12.50;96.80;;;;;;929234;153;27330;-78
2023/04/16 01:49:08;;;;;;;4.87;4.47;;;12.50;96.80;;;;;;928696;154;27420;-78
2023/04/16 01:51:35;;;;;;;4.70;4.30;;;12.50;96.70;;;;;;931506;154;27387;-78
2023/04/16 01:54:02;;;;;;;5.23;4.73;;;12.50;96.70;;;;;;942114;151;27345;-78
2023/04/16 01:56:28;;;;;;;4.80;4.40;;;12.50;96.70;;;;;;940182;151;27441;-78
2023/04/16 01:58:55;;;;;;;4.40;4.00;;;12.50;96.70;;;;;;941975;149;27446;-78
2023/04/16 02:01:21;;;;;;;4.70;4.30;;;12.50;96.70;;;;;;933728;151;27385;-77
2023/04/16 02:03:48;;;;;;;5.10;4.57;;;12.50;96.70;;;;;;945019;151;27477;-78
2023/04/16 02:06:15;;;;;;;4.53;4.00;;;12.50;96.70;;;;;;944651;151;27321;-77
2023/04/16 02:08:42;;;;;;;5.43;4.30;;;12.60;96.60;;;;;;945053;151;27369;-78
2023/04/16 02:11:08;;;;;;;4.97;4.47;;;12.50;96.60;;;;;;931070;153;27349;-78
2023/04/16 02:13:34;;;;;;;5.03;4.53;;;12.60;96.60;;;;;;942418;152;27360;-78
2023/04/16 02:16:01;;;;;;;5.63;4.90;;;12.60;96.60;;;;;;941298;151;27366;-77
2023/04/16 02:18:27;;;;;;;5.20;4.27;;;12.60;96.40;;;;;;940303;150;27299;-78
2023/04/16 02:20:54;;;;;;;5.93;5.33;;;12.60;96.50;;;;;;921808;151;27340;-78
2023/04/16 02:23:21;;;;;;;4.93;4.50;;;12.60;96.50;;;;;;922100;152;27361;-78
2023/04/16 02:25:47;;;;;;;4.83;4.43;;;12.60;96.80;;;;;;934149;151;27458;-78
2023/04/16 02:28:14;;;;;;;5.70;5.20;;;12.50;96.50;;;;;;936914;150;27419;-78
2023/04/16 02:30:40;;;;;;;4.60;4.20;;;12.60;96.70;;;;;;933692;151;27329;-78
2023/04/16 02:33:07;;;;;;;5.60;5.10;;;12.60;96.70;;;;;;945147;149;27329;-78
2023/04/16 02:35:34;;;;;;;5.30;4.80;;;12.60;96.80;;;;;;928852;150;27499;-77
2023/04/16 02:38:00;;;;;;;5.27;4.77;;;12.60;96.40;;;;;;942945;149;27367;-77
2023/04/16 02:40:27;;;;;;;6.40;4.70;;;12.60;96.30;;;;;;955356;147;27322;-78
2023/04/16 02:42:53;;;;;;;5.73;5.23;;;12.50;96.30;;;;;;957328;147;27375;-78
2023/04/16 02:45:20;;;;;;;5.43;4.93;;;12.50;96.50;;;;;;950470;147;27345;-77
2023/04/16 02:47:47;;;;;;;5.50;4.97;;;12.50;96.20;;;;;;940576;150;27374;-77
2023/04/16 02:50:13;;;;;;;5.53;4.90;;;12.50;96.20;;;;;;940342;150;27399;-77
2023/04/16 02:52:40;;;;;;;5.80;5.30;;;12.50;96.20;;;;;;940000;150;27427;-77
2023/04/16 02:55:06;;;;;;;5.23;4.70;;;12.50;96.20;;;;;;938832;150;27311;-78
2023/04/16 02:57:33;;;;;;;5.67;5.13;;;12.50;96.30;;;;;;943491;148;27340;-78
2023/04/16 02:59:59;;;;;;;5.50;5.00;;;12.50;96.30;;;;;;932747;149;27480;-77
2023/04/16 03:02:26;;;;;;;5.50;5.00;;;12.50;96.40;;;;;;939033;150;27409;-78
2023/04/16 03:04:53;;;;;;;5.70;5.10;;;12.50;96.50;;;;;;942985;148;27298;-78
2023/04/16 03:07:20;;;;;;;5.70;5.20;;;12.50;96.50;;;;;;922915;151;27327;-78
2023/04/16 03:09:46;;;;;;;5.30;4.80;;;12.50;96.60;;;;;;930216;150;27496;-77
2023/04/16 03:12:12;;;;;;;5.40;4.77;;;12.50;96.60;;;;;;942785;148;27349;-77
2023/04/16 03:14:39;;;;;;;5.27;4.87;;;12.50;96.60;;;;;;940231;150;27330;-77
2023/04/16 03:17:06;;;;;;;5.40;4.90;;;12.50;96.60;;;;;;941959;148;27303;-77
2023/04/16 03:19:32;;;;;;;4.97;4.57;;;12.50;96.50;;;;;;951810;148;27410;-77
2023/04/16 03:21:59;;;;;;;5.60;5.10;;;12.50;96.50;;;;;;944314;148;27377;-78
2023/04/16 03:24:26;;;;;;;5.40;4.90;;;12.50;96.30;;;;;;939640;150;27462;-78
2023/04/16 03:26:52;;;;;;;5.60;5.10;;;12.50;96.20;;;;;;943713;148;27376;-77
2023/04/16 03:29:19;;;;;;;5.60;5.00;;;12.50;96.20;;;;;;944478;148;27419;-77
2023/04/16 03:31:45;;;;;;;5.57;5.07;;;12.40;96.30;;;;;;943815;148;27298;-77
2023/04/16 03:34:12;;;;;;;5.03;4.50;;;12.40;96.40;;;;;;942968;148;27466;-77
2023/04/16 03:36:38;;;;;;;5.50;5.00;;;12.40;96.40;;;;;;941623;148;27436;-77
2023/04/16 03:39:05;;;;;;;5.10;4.60;;;12.40;96.40;;;;;;937293;148;27350;-77
2023/04/16 03:41:31;;;;;;;6.00;5.43;;;12.40;96.40;;;;;;937983;148;27342;-77
2023/04/16 03:43:58;;;;;;;5.23;4.73;;;12.40;96.40;;;;;;929657;149;27377;-77
2023/04/16 03:46:25;;;;;;;7.70;5.23;;;12.40;96.50;;;;;;930882;149;27323;-77
2023/04/16 03:48:51;;;;;;;5.13;4.60;;;12.40;96.50;;;;;;937223;148;27395;-77
2023/04/16 03:51:18;;;;;;;5.97;4.67;;;12.40;96.50;;;;;;937405;148;27318;-78
2023/04/16 03:53:44;;;;;;;5.27;4.77;;;12.40;96.50;;;;;;928956;149;27439;-77
2023/04/16 03:56:11;;;;;;;5.20;4.70;;;12.40;96.50;;;;;;929076;149;27369;-77
2023/04/16 03:58:38;;;;;;;5.40;4.90;;;12.40;96.60;;;;;;937475;148;27330;-77
2023/04/16 04:01:04;;;;;;;6.10;5.50;;;12.40;96.50;;;;;;937482;148;27409;-77
2023/04/16 04:03:31;;;;;;;5.50;5.00;;;12.40;96.40;;;;;;937365;148;27399;-78
2023/04/16 04:05:57;;;;;;;6.93;5.13;;;12.40;96.30;;;;;;936113;148;27431;-77
2023/04/16 04:08:25;;;;;;;6.13;5.40;;;12.50;96.30;;;;;;913371;151;27477;-77
2023/04/16 04:10:51;;;;;;;5.57;5.07;;;12.50;96.20;;;;;;932881;149;27362;-78
2023/04/16 04:13:17;;;;;;;5.80;5.20;;;12.50;96.20;;;;;;937634;148;27293;-77
2023/04/16 04:15:44;;;;;;;5.77;4.93;;;12.50;96.20;;;;;;937042;148;27448;-77
2023/04/16 04:18:10;;;;;;;5.63;5.07;;;12.50;96.20;;;;;;921487;150;27395;-77
2023/04/16 04:20:40;;;;;;;5.27;4.77;;;12.40;96.10;;;;;;936121;148;27294;-77
2023/04/16 04:23:06;;;;;;;5.47;4.97;;;12.50;96.10;;;;;;929371;149;27462;-77
2023/04/16 04:25:33;;;;;;;4.77;4.37;;;12.40;96.00;;;;;;928704;149;27310;-77
2023/04/16 04:27:59;;;;;;;6.07;5.47;;;12.40;96.10;;;;;;937824;148;27529;-77
2023/04/16 04:30:26;;;;;;;6.00;5.50;;;12.40;96.10;;;;;;936776;148;27385;-77
2023/04/16 04:32:53;;;;;;;5.63;5.13;;;12.40;96.10;;;;;;937335;148;27324;-77
2023/04/16 04:35:19;;;;;;;5.40;4.90;;;12.40;96.10;;;;;;928590;149;27281;-77
2023/04/16 04:37:46;;;;;;;5.90;5.27;;;12.40;96.10;;;;;;944991;147;27463;-77
2023/04/16 04:40:12;;;;;;;5.63;5.07;;;12.40;96.10;;;;;;949661;147;27437;-77
2023/04/16 04:42:39;;;;;;;5.73;5.13;;;12.40;96.20;;;;;;927962;149;27361;-77
2023/04/16 04:45:06;;;;;;;5.33;4.83;;;12.40;96.30;;;;;;938734;149;27285;-77
2023/04/16 04:47:32;;;;;;;5.20;4.70;;;12.40;96.30;;;;;;934490;150;27512;-77
2023/04/16 04:49:59;;;;;;;5.67;5.17;;;12.40;96.40;;;;;;943641;148;27345;-77
2023/04/16 04:52:25;;;;;;;5.60;5.07;;;12.40;96.30;;;;;;940462;149;27384;-77
2023/04/16 04:54:52;;;;;;;5.10;4.60;;;12.50;96.30;;;;;;941523;149;27302;-77
2023/04/16 04:57:19;;;;;;;5.40;4.90;;;12.50;96.30;;;;;;944144;148;27321;-77
2023/04/16 04:59:45;;;;;;;4.90;4.50;;;12.50;96.30;;;;;;943319;148;27321;-77
2023/04/16 05:02:12;;;;;;;5.30;4.80;;;12.50;96.30;;;;;;944280;148;27742;-77
2023/04/16 05:04:38;;;;;;;5.80;5.00;;;12.50;96.30;;;;;;937515;150;27374;-77
2023/04/16 05:07:06;;;;;;;6.07;5.40;;;12.50;96.40;;;;;;944227;148;27320;-77
2023/04/16 05:09:32;;;;;;;5.30;4.80;;;12.50;96.40;;;;;;941473;149;27366;-78
2023/04/16 05:11:58;;;;;;;5.50;5.00;;;12.50;96.40;;;;;;943843;148;27352;-77
2023/04/16 05:14:25;;;;;;;5.83;4.83;;;12.50;96.40;;;;;;930887;150;27834;-77
2023/04/16 05:16:51;;;;;;;5.47;4.83;;;12.50;96.10;;;;;;927743;150;27367;-77
2023/04/16 05:19:18;;;;;;;5.80;5.30;;;12.50;96.50;;;;;;931630;150;27294;-77
2023/04/16 05:21:44;;;;;;;5.67;5.10;;;12.60;96.50;;;;;;941279;149;27302;-77
2023/04/16 05:24:11;;;;;;;5.33;4.80;;;12.60;96.50;;;;;;941113;149;27361;-77
2023/04/16 05:26:38;;;;;;;6.03;5.17;;;12.60;96.90;;;;;;941701;149;27421;-77
2023/04/16 05:29:04;;;;;;;5.70;5.20;;;12.60;96.50;;;;;;941222;149;27294;-77
2023/04/16 05:31:31;;;;;;;9.43;6.30;;;12.60;96.50;;;;;;943662;148;27402;-77
2023/04/16 05:33:57;;;;;;;6.07;5.43;;;12.60;96.40;;;;;;941189;149;27365;-77
2023/04/16 05:36:24;;;;;;;6.50;5.73;;;12.60;96.80;;;;;;940464;149;27458;-77
2023/04/16 05:38:51;;;;;;;5.97;5.37;;;12.60;96.50;;;;;;935770;149;27425;-77
2023/04/16 05:41:17;;;;;;;5.97;5.37;;;12.60;96.40;;;;;;933621;149;27344;-77
2023/04/16 05:43:44;;;;;;;6.10;5.50;;;12.60;96.50;;;;;;911682;153;27712;-77
2023/04/16 05:46:10;;;;;;;5.30;4.80;;;12.70;96.40;;;;;;909853;153;27418;-77
2023/04/16 05:48:37;;;;;;;5.53;5.03;;;12.70;96.40;;;;;;911167;153;27303;-77
2023/04/16 05:51:03;;;;;;;5.63;4.80;;;12.70;96.20;;;;;;911222;153;27294;-77
2023/04/16 05:53:30;;;;;;;6.50;5.37;;;12.70;96.20;;;;;;913083;154;27425;-77
2023/04/16 05:55:57;;;;;;;5.10;4.60;;;12.70;96.10;;;;;;912488;154;27400;-77
2023/04/16 05:58:23;;;;;;;5.53;5.03;;;12.70;96.10;;;;;;912693;154;27436;-77
2023/04/16 06:00:50;;;;;;;5.37;4.80;;;12.80;96.10;;;;;;912152;154;27394;-77
2023/04/16 06:03:16;;;;;;;4.93;4.43;;;12.80;96.00;;;;;;913192;154;27362;-77
2023/04/16 06:05:43;;;;;;;4.67;4.27;;;12.80;96.00;;;;;;909417;153;27376;-77
2023/04/16 06:08:10;;;;;;;5.10;4.60;;;12.80;95.90;;;;;;912531;154;27381;-77
2023/04/16 06:10:36;;;;;;;4.30;3.90;;;12.80;96.00;;;;;;912121;154;27405;-77
2023/04/16 06:13:03;;;;;;;4.67;4.27;;;12.90;96.00;;;;;;913026;154;27539;-78
2023/04/16 06:15:29;;;;;;;4.93;4.07;;;12.80;96.00;;;;;;911817;154;27400;-76
2023/04/16 06:17:56;;;;;;;4.90;4.50;;;12.90;96.00;;;;;;910963;155;27495;-76
2023/04/16 06:20:23;;;;;;;5.00;4.60;;;12.90;96.00;;;;;;907929;155;27522;-76
2023/04/16 06:22:49;;;;;;;5.60;4.17;;;12.90;96.00;;;;;;906501;155;27374;-77
2023/04/16 06:25:16;;;;;;;4.77;4.27;;;12.90;96.00;;;;;;938192;149;27307;-76
2023/04/16 06:27:42;;;;;;;4.30;3.90;;;12.90;95.90;;;;;;934748;149;27454;-76
2023/04/16 06:30:12;;;;;;;4.90;4.50;;;12.90;96.00;;;;;;932519;149;27394;-76
2023/04/16 06:32:38;;;;;;;4.73;4.33;;;12.90;96.20;;;;;;932353;149;27310;-76
2023/04/16 06:35:05;;;;;;;4.73;4.33;;;12.90;96.20;;;;;;931814;149;27345;-77
2023/04/16 06:37:31;;;;;;;5.70;5.20;;;12.90;96.20;;;;;;931858;149;27470;-77
2023/04/16 06:39:58;;;;;;;4.40;4.00;;;12.90;96.00;;;;;;954775;147;27359;-77
2023/04/16 06:42:25;;;;;;;5.17;4.67;;;12.90;96.00;;;;;;955080;147;27281;-73
2023/04/16 06:44:51;;;;;;;4.87;4.47;;;12.90;96.10;;;;;;945593;148;27321;-73
2023/04/16 06:47:18;;;;;;;5.17;4.67;;;12.90;96.10;;;;;;947236;148;27430;-73
2023/04/16 06:49:44;;;;;;;5.43;4.93;;;12.90;96.20;;;;;;931604;151;27361;-73
2023/04/16 06:52:11;;;;;;;4.83;4.43;;;12.80;96.30;;;;;;940342;151;27269;-73
2023/04/16 06:54:38;;;;;;;5.33;4.60;;;12.80;96.40;;;;;;939843;152;27342;-73
2023/04/16 06:57:04;;;;;;;4.57;4.17;;;12.80;96.50;;;;;;934025;149;27333;-73
2023/04/16 06:59:31;;;;;;;6.30;5.70;;;12.80;96.60;;;;;;932548;149;27450;-73
2023/04/16 07:01:57;;;;;;;5.10;4.60;;;12.80;96.80;;;;;;932889;151;27452;-73
2023/04/16 07:04:24;;;;;;;6.33;5.10;;;12.70;96.80;;;;;;931211;149;27970;-73
2023/04/16 07:06:50;;;;;;;5.97;5.47;;;12.70;96.90;;;;;;943555;148;27336;-73
2023/04/16 07:09:17;;;;;;;5.83;5.20;;;12.70;97.10;;;;;;924377;149;27517;-73
2023/04/16 07:11:44;;;;;;;5.07;4.67;;;12.70;97.60;;;;;;939582;150;27381;-74
2023/04/16 07:14:10;;;;;;;5.47;5.00;;;12.70;97.50;;;;;;939550;150;27330;-73
2023/04/16 07:16:37;;;;;;;5.80;4.80;;;12.70;97.70;;;;;;932135;150;27399;-73
2023/04/16 07:19:03;;;;;;;8.70;5.33;;;12.70;97.90;;;;;;939867;150;27302;-73
2023/04/16 07:21:30;;;;;;;5.20;4.70;;;12.70;98.00;;;;;;940437;149;27381;-73
2023/04/16 07:23:57;;;;;;;6.10;5.50;;;12.70;98.30;;;;;;940913;148;27462;-73
2023/04/16 07:26:23;;;;;;;5.57;5.07;;;12.70;98.50;;;;;;947057;148;27341;-73
2023/04/16 07:28:50;;;;;;;5.83;5.30;;;12.70;98.30;;;;;;943642;148;27322;-73
2023/04/16 07:31:16;;;;;;;5.67;5.10;;;12.70;98.70;;;;;;943493;148;27285;-73
2023/04/16 07:33:43;;;;;;;5.77;5.17;;;12.70;98.70;;;;;;942100;149;27369;-73
2023/04/16 07:36:10;;;;;;;5.50;5.00;;;12.80;99.10;;;;;;948592;148;27316;-73
2023/04/16 07:38:36;;;;;;;5.83;5.23;;;12.80;98.80;;;;;;954362;146;27307;-73
2023/04/16 07:41:03;;;;;;;5.00;4.60;;;12.80;98.80;;;;;;947756;146;27320;-73
2023/04/16 07:43:29;;;;;;;5.27;4.77;;;12.80;98.90;;;;;;941828;149;27385;-73
2023/04/16 07:45:56;;;;;;;7.00;5.03;;;12.80;98.90;;;;;;944044;148;27393;-73
2023/04/16 07:48:22;;;;;;;5.97;5.37;;;12.90;98.80;;;;;;943731;148;27369;-73
2023/04/16 07:50:49;;;;;;;6.13;5.53;;;12.80;98.70;;;;;;944280;148;27321;-73
2023/04/16 07:53:16;;;;;;;6.53;5.63;;;12.90;98.70;;;;;;948446;147;27303;-73
2023/04/16 07:55:42;;;;;;;6.40;5.53;;;12.90;98.90;;;;;;947589;147;27448;-73
2023/04/16 07:58:09;;;;;;;6.07;5.43;;;12.90;98.70;;;;;;940064;150;27267;-73
2023/04/16 08:00:35;;;;;;;5.63;5.10;;;12.90;98.70;;;;;;943033;149;27348;-73
2023/04/16 08:03:02;;;;;;;5.33;4.83;;;12.90;98.80;;;;;;943887;149;27345;-73
2023/04/16 08:05:29;;;;;;;6.03;5.23;;;12.90;98.80;;;;;;942846;148;27375;-73
2023/04/16 08:07:55;;;;;;;5.80;5.17;;;12.90;98.80;;;;;;937693;150;27370;-73
2023/04/16 08:10:22;;;;;;;4.97;4.53;;;13.00;98.80;;;;;;937789;150;27972;-73
2023/04/16 08:12:48;;;;;;;5.63;5.00;;;12.90;98.90;;;;;;938520;150;27415;-73
2023/04/16 08:15:15;;;;;;;5.07;4.57;;;13.00;98.90;;;;;;944197;148;27353;-73
2023/04/16 08:17:41;;;;;;;5.47;4.93;;;13.00;98.90;;;;;;940480;149;27454;-73
2023/04/16 08:20:08;;;;;;;5.27;4.77;;;13.00;99.00;;;;;;944351;148;27409;-73
2023/04/16 08:22:35;;;;;;;6.07;5.47;;;13.10;99.00;;;;;;926866;150;27403;-73
2023/04/16 08:25:01;;;;;;;5.30;4.80;;;13.10;99.00;;;;;;938790;150;27258;-73
2023/04/16 08:27:28;;;;;;;5.87;5.27;;;13.10;99.10;;;;;;937045;150;27382;-73
2023/04/16 08:29:54;;;;;;;5.67;5.13;;;13.10;99.00;;;;;;938665;150;27365;-73
2023/04/16 08:32:21;;;;;;;7.85;5.90;;;13.20;99.00;;;;;;938034;150;27326;-75
2023/04/16 08:34:48;;;;;;;5.73;4.90;;;13.20;98.90;;;;;;938385;150;27317;-75
2023/04/16 08:37:14;;;;;;;6.07;5.47;;;13.20;98.80;;;;;;943958;148;27831;-75
2023/04/16 08:39:41;;;;;;;6.30;5.67;;;13.30;99.00;;;;;;936970;150;27506;-74
2023/04/16 08:42:07;;;;;;;7.17;5.63;;;13.30;98.80;;;;;;937364;148;27302;-74
2023/04/16 08:44:34;;;;;;;7.03;6.03;;;13.30;98.70;;;;;;936319;148;27352;-74
2023/04/16 08:47:01;;;;;;;6.53;5.93;;;13.30;98.60;;;;;;936824;148;27307;-74
2023/04/16 08:49:27;;;;;;;6.50;5.83;;;13.30;98.60;;;;;;939080;147;27434;-74
2023/04/16 08:51:54;;;;;;;6.83;6.23;;;13.40;98.60;;;;;;936118;148;27749;-74
2023/04/16 08:54:20;;;;;;;7.10;6.40;;;13.40;98.60;;;;;;940907;149;27831;-74
2023/04/16 08:56:47;;;;;;;6.23;5.63;;;13.40;98.70;;;;;;928892;149;27813;-74
2023/04/16 08:59:13;;;;;;;7.97;6.13;;;13.40;98.70;;;;;;926831;150;27371;-74
2023/04/16 09:01:40;;;;;;;6.50;5.90;;;13.50;98.90;;;;;;937389;150;27373;-75
2023/04/16 09:04:07;;;;;;;6.60;5.85;;;13.50;99.00;;;;;;936849;149;27385;-75
2023/04/16 09:06:33;;;;;;;7.60;6.90;;;13.60;98.90;;;;;;938488;150;27384;-75
2023/04/16 09:09:03;;;;;;;7.30;6.50;;;13.60;98.70;;;;;;932995;149;27366;-75
2023/04/16 09:11:26;;;;;;;7.10;6.33;;;13.70;98.60;;;;;;932834;149;27373;-75
2023/04/16 09:13:53;;;;;;;6.58;5.97;;;13.70;98.40;;;;;;937494;149;27361;-75
2023/04/16 09:16:20;;;;;;;6.83;6.23;;;13.80;98.30;;;;;;932420;149;27484;-75
2023/04/16 09:18:46;;;;;;;7.57;6.87;;;13.80;98.00;;;;;;938615;150;27282;-75
2023/04/16 09:21:13;;;;;;;6.77;6.07;;;13.80;97.90;;;;;;939383;150;27349;-76
2023/04/16 09:23:39;;;;;;;7.10;6.50;;;13.80;97.70;;;;;;937869;148;27346;-77
2023/04/16 09:26:06;;;;;;;7.37;6.60;;;13.90;97.50;;;;;;936324;148;27357;-75
2023/04/16 09:28:42;;;;;;;8.15;6.75;;;13.90;97.60;;;;;;937570;148;27389;-75
2023/04/16 09:31:08;;;;;;;7.10;6.12;;;13.90;97.80;;;;;;925013;149;27683;-75
2023/04/16 09:33:35;;;;;;;7.12;6.42;;;14.00;98.10;;;;;;933610;149;27319;-75
2023/04/16 09:36:01;;;;;;;6.70;5.65;;;14.00;97.90;;;;;;938508;150;27439;-75
2023/04/16 09:38:28;;;;;;;7.80;6.73;;;14.10;97.70;;;;;;939111;147;27416;-75
2023/04/16 09:41:07;;;;;;;7.17;6.47;;;14.10;97.40;;;;;;946270;147;27384;-75
2023/04/16 09:43:34;;;;;;;6.95;6.15;;;14.20;97.20;;;;;;938855;150;27326;-74
2023/04/16 09:46:00;;;;;;;7.55;6.80;;;14.30;96.90;;;;;;941988;150;27316;-74
2023/04/16 09:48:30;;;;;;;7.55;6.65;;;14.30;96.60;;;;;;937319;148;27371;-75
2023/04/16 09:50:56;;;;;;;6.97;6.37;;;14.30;96.40;;;;;;944113;148;27470;-75
2023/04/16 09:53:25;;;;;;;7.03;6.10;;;14.30;96.10;;;;;;942572;148;27342;-75
2023/04/16 09:55:52;;;;;;;6.45;5.85;;;14.30;96.10;;;;;;939591;150;27407;-75
2023/04/16 09:58:19;;;;;;;7.50;6.70;;;14.40;96.00;;;;;;925330;150;27412;-75
2023/04/16 10:00:45;;;;;;;7.17;6.45;;;14.40;96.10;;;;;;943635;148;27368;-75
2023/04/16 10:03:12;;;;;;;7.37;6.67;;;14.40;96.10;;;;;;938995;150;27309;-75
2023/04/16 10:05:38;;;;;;;6.93;6.27;;;14.40;96.20;;;;;;943265;148;27312;-75
2023/04/16 10:08:11;;;;;;;7.33;6.62;;;14.50;96.20;;;;;;943418;148;27426;-74
2023/04/16 10:10:38;;;;;;;8.13;7.10;;;14.50;96.00;;;;;;940654;149;27494;-74
2023/04/16 10:13:04;;;;;;;7.65;6.72;;;14.60;95.90;;;;;;950615;147;27303;-75
2023/04/16 10:15:31;;;;;;;7.25;6.55;;;14.60;95.80;;;;;;943731;148;27332;-75
2023/04/16 10:17:59;;;;;;;7.37;6.58;;;14.60;95.60;;;;;;940172;150;27796;-75
2023/04/16 10:20:24;;;;;;;7.47;6.78;;;14.60;95.60;;;;;;939290;150;27365;-75
2023/04/16 10:22:51;;;;;;;6.87;6.25;;;14.70;95.60;;;;;;924536;152;27355;-75
2023/04/16 10:25:17;;;;;;;8.48;7.40;;;14.70;95.50;;;;;;937805;150;27415;-75
2023/04/16 10:27:44;;;;;;;7.95;7.10;;;14.70;95.40;;;;;;944130;148;27316;-75
2023/04/16 10:30:10;;;;;;;7.62;6.92;;;14.70;95.30;;;;;;944004;148;27286;-75
2023/04/16 10:32:37;;;;;;;8.18;7.37;;;14.80;95.10;;;;;;939402;150;27921;-75
2023/04/16 10:35:04;;;;;;;9.20;7.55;;;14.80;94.80;;;;;;941065;149;27405;-75
2023/04/16 10:37:30;;;;;;;8.30;6.77;;;14.80;94.60;;;;;;924872;150;27275;-75
2023/04/16 10:39:59;;;;;;;7.28;6.58;;;14.80;94.30;;;;;;940513;149;27311;-75
2023/04/16 10:42:26;;;;;;;6.78;6.17;;;14.80;94.30;;;;;;948997;148;27411;-75
2023/04/16 10:44:52;;;;;;;6.90;6.30;;;14.70;94.30;;;;;;949125;147;27315;-75
2023/04/16 10:47:19;;;;;;;7.42;6.70;;;14.70;94.40;;;;;;930972;149;27500;-75
2023/04/16 10:49:46;;;;;;;7.62;6.87;;;14.70;94.50;;;;;;937404;150;27423;-75
2023/04/16 10:52:12;;;;;;;7.95;7.25;;;14.70;94.60;;;;;;938350;150;27435;-75
2023/04/16 10:54:39;;;;;;;7.45;6.75;;;14.70;94.70;;;;;;936332;150;27358;-75
2023/04/16 10:57:05;;;;;;;8.40;7.60;;;14.70;94.50;;;;;;935917;150;27411;-75
2023/04/16 10:59:33;;;;;;;8.05;7.25;;;14.70;94.50;;;;;;936852;150;27322;-75
2023/04/16 11:02:00;;;;;;;7.62;6.92;;;14.70;94.60;;;;;;937152;150;27335;-75
2023/04/16 11:04:25;;;;;;;8.38;7.53;;;14.70;94.30;;;;;;938044;150;27354;-75
2023/04/16 11:07:19;;;;;;;8.18;7.40;;;14.70;94.50;;;;;;937479;150;27340;-75
2023/04/16 11:09:58;;;;;;;9.05;8.15;;;14.70;94.30;;;;;;938603;150;27417;-75
2023/04/16 11:12:26;;;;;;;8.13;7.33;;;14.70;94.20;;;;;;937655;150;27439;-73
2023/04/16 11:14:51;;;;;;;8.50;7.70;;;14.70;94.30;;;;;;937720;150;27295;-73
2023/04/16 11:17:18;;;;;;;9.20;8.00;;;14.70;94.30;;;;;;934315;150;27350;-73
2023/04/16 11:19:44;;;;;;;7.97;7.05;;;14.70;94.30;;;;;;938204;150;27443;-73
2023/04/16 11:22:15;;;;;;;8.13;7.15;;;14.60;94.30;;;;;;936624;150;27322;-73
2023/04/16 11:24:41;;;;;;;10.20;8.25;;;14.60;94.30;;;;;;936923;150;27342;-73
2023/04/16 11:27:07;;;;;;;17.40;10.00;;;14.60;94.30;;;;;;938273;150;27381;-73
2023/04/16 11:29:34;;;;;;;9.95;8.95;;;14.60;94.50;;;;;;938052;150;27358;-73
2023/04/16 11:32:00;;;;;;;10.08;9.00;;;14.60;94.60;;;;;;938017;150;27470;-73
2023/04/16 11:34:27;;;;;;;9.63;8.70;;;14.50;94.80;;;;;;942870;146;27325;-73
2023/04/16 11:36:54;;;;;;;9.58;8.68;;;14.50;95.00;;;;;;943024;148;27332;-73
2023/04/16 11:39:20;;;;;;;9.40;8.45;;;14.50;95.20;;;;;;941737;149;27439;-73
2023/04/16 11:41:47;;;;;;;9.63;8.70;;;14.50;95.30;;;;;;941506;148;27496;-73
2023/04/16 11:44:22;;;;;;;10.53;9.43;;;14.50;95.40;;;;;;914915;151;27312;-73
2023/04/16 11:46:49;;;;;;;9.75;8.75;;;14.50;95.60;;;;;;932350;149;27318;-73
2023/04/16 11:49:16;;;;;;;8.88;7.97;;;14.50;95.60;;;;;;930408;149;27419;-73
2023/04/16 11:51:42;;;;;;;10.35;9.35;;;14.50;95.80;;;;;;933960;149;27381;-73
2023/04/16 11:54:09;;;;;;;10.43;9.33;;;14.50;96.00;;;;;;936818;149;27295;-73
2023/04/16 11:56:36;;;;;;;11.78;10.68;;;14.50;96.00;;;;;;935152;149;27357;-73
2023/04/16 11:59:21;;;;;;;12.15;11.00;;;14.50;95.80;;;;;;948572;147;27335;-73
2023/04/16 12:01:49;;;;;;;11.97;10.77;;;14.50;95.60;;;;;;941932;149;27372;-73
2023/04/16 12:04:16;;;;;;;13.65;11.50;;;14.50;95.50;;;;;;925498;150;27373;-73
2023/04/16 12:07:10;;;;;;;13.18;11.78;;;14.40;95.70;;;;;;926636;150;27339;-73
2023/04/16 12:09:36;;;;;;;12.70;11.40;;;14.40;95.90;;;;;;909534;150;27423;-73
2023/04/16 12:12:03;;;;;;;14.03;12.23;;;14.30;95.90;;;;;;948265;147;27252;-73
2023/04/16 12:14:30;;;;;;;13.90;12.40;;;14.30;96.10;;;;;;938189;150;27383;-73
2023/04/16 12:16:57;;;;;;;13.25;11.95;;;14.20;96.40;;;;;;938966;150;26480;-73
2023/04/16 12:19:23;;;;;;;13.83;12.43;;;14.20;96.60;;;;;;942613;148;27440;-73
2023/04/16 12:21:49;;;;;;;13.48;12.07;;;14.20;96.70;;;;;;942052;148;27512;-73
2023/04/16 12:24:16;;;;;;;13.20;11.90;;;14.10;96.80;;;;;;919500;152;27711;-73
2023/04/16 12:26:45;;;;;;;15.70;13.03;;;14.10;96.90;;;;;;938513;150;27373;-73
2023/04/16 12:29:20;;;;;;;14.65;13.15;;;14.10;96.80;;;;;;933348;149;27453;-73
2023/04/16 12:31:50;;;;;;;13.93;12.45;;;14.10;97.00;;;;;;930680;149;27332;-73
2023/04/16 12:34:17;;;;;;;14.20;11.45;;;14.10;97.40;;;;;;937047;149;27466;-73
2023/04/16 12:36:43;;;;;;;14.25;12.75;;;14.10;97.90;;;;;;936245;148;27358;-73
2023/04/16 12:39:10;;;;;;;14.07;12.68;;;14.10;98.10;;;;;;936665;148;27278;-73
2023/04/16 12:41:36;;;;;;;13.70;12.20;;;14.10;98.40;;;;;;931746;149;27407;-73
2023/04/16 12:44:03;;;;;;;13.08;11.78;;;14.20;98.50;;;;;;929340;153;27335;-73